createdAt,value
2022-10-26T00:08:30.174Z,18.37
2022-10-26T00:18:07.116Z,10.45
2022-10-26T00:53:24.786Z,14.45
2022-10-26T00:57:01.814Z,14.35
2022-10-26T01:10:26.666Z,15.15
2022-10-26T01:31:37.825Z,11.50
2022-10-26T01:43:26.269Z,11.00
2022-10-26T01:48:10.108Z,16.60
2022-10-26T02:14:31.427Z,14.75
2022-10-26T03:32:55.515Z,10.68
2022-10-26T03:52:10.834Z,12.63
2022-10-26T03:58:13.414Z,10.03
2022-10-26T04:15:38.332Z,20.38
2022-10-26T04:24:41.067Z,15.43
2022-10-26T04:30:32.892Z,15.75
2022-10-26T04:33:20.593Z,13.20
2022-10-26T04:36:27.451Z,10.10
2022-10-26T04:39:05.139Z,15.88
2022-10-26T04:47:20.547Z,13.63
2022-10-26T04:50:28.332Z,16.65
2022-10-26T04:56:10.829Z,9.83
2022-10-26T05:03:04.511Z,14.80
2022-10-26T05:05:40.771Z,10.43
2022-10-26T05:18:18.118Z,8.93
2022-10-26T05:24:26.346Z,17.13
2022-10-26T05:32:44.096Z,11.18
2022-10-26T05:47:16.257Z,10.90
2022-10-26T05:54:09.272Z,12.40
2022-10-26T06:02:14.377Z,15.63
2022-10-26T06:05:19.335Z,12.95
2022-10-26T06:07:48.707Z,12.18
2022-10-26T06:10:30.852Z,14.17
2022-10-26T06:13:28.782Z,15.48
2022-10-26T06:16:29.418Z,13.63
2022-10-26T06:19:23.858Z,16.38
2022-10-26T06:22:19.772Z,16.98
2022-10-26T06:25:13.212Z,19.13
2022-10-26T06:27:56.573Z,12.00
2022-10-26T06:30:23.669Z,14.25
2022-10-26T06:33:01.291Z,11.27
2022-10-26T06:35:43.987Z,18.60
2022-10-26T06:38:18.463Z,14.70
2022-10-26T06:40:50.308Z,15.30
2022-10-26T06:43:30.548Z,19.15
2022-10-26T06:46:11.025Z,15.85
2022-10-26T06:55:23.219Z,14.88
2022-10-26T06:57:50.576Z,12.20
2022-10-26T07:00:22.368Z,13.43
2022-10-26T07:02:50.468Z,14.82
2022-10-26T07:05:18.116Z,16.17
2022-10-26T07:07:48.658Z,16.83
2022-10-26T07:10:16.181Z,16.55
2022-10-26T07:12:43.020Z,12.50
2022-10-26T07:15:13.719Z,11.55
2022-10-26T07:17:49.076Z,16.03
2022-10-26T07:20:18.192Z,13.82
2022-10-26T07:22:45.743Z,16.08
2022-10-26T07:25:12.988Z,11.50
2022-10-26T07:27:39.895Z,12.13
2022-10-26T07:30:08.420Z,11.37
2022-10-26T07:32:57.534Z,12.73
2022-10-26T07:35:45.395Z,11.20
2022-10-26T07:38:25.836Z,13.98
2022-10-26T07:41:02.112Z,12.25
2022-10-26T07:43:53.584Z,12.67
2022-10-26T07:46:42.138Z,11.73
2022-10-26T07:49:19.507Z,11.95
2022-10-26T07:52:10.734Z,8.85
2022-10-26T07:54:47.709Z,7.97
2022-10-26T07:57:27.744Z,9.93
2022-10-26T07:59:57.799Z,9.00
2022-10-26T08:02:36.956Z,9.65
2022-10-26T08:05:21.192Z,10.88
2022-10-26T08:07:54.138Z,11.65
2022-10-26T08:10:25.501Z,9.37
2022-10-26T08:13:00.635Z,14.07
2022-10-26T08:15:29.142Z,11.85
2022-10-26T08:17:57.725Z,10.32
2022-10-26T08:21:10.931Z,11.20
2022-10-26T08:23:23.135Z,8.33
2022-10-26T08:26:47.201Z,8.15
2022-10-26T08:29:06.777Z,8.13
2022-10-26T08:31:51.615Z,10.00
2022-10-26T08:34:19.093Z,7.68
2022-10-26T08:36:46.412Z,6.40
2022-10-26T08:39:13.671Z,11.05
2022-10-26T08:41:46.384Z,6.30
2022-10-26T08:45:36.514Z,10.68
2022-10-26T08:47:56.301Z,12.18
2022-10-26T08:51:16.384Z,6.00
2022-10-26T08:54:24.186Z,5.28
2022-10-26T08:56:57.778Z,7.80
2022-10-26T08:59:44.067Z,8.55
2022-10-26T09:02:16.395Z,6.45
2022-10-26T09:04:43.577Z,12.93
2022-10-26T09:07:48.882Z,7.65
2022-10-26T09:10:34.151Z,8.65
2022-10-26T09:13:13.159Z,7.55
2022-10-26T09:15:44.395Z,7.65
2022-10-26T09:24:52.775Z,8.32
2022-10-26T09:27:58.138Z,6.43
2022-10-26T09:30:28.093Z,6.55
2022-10-26T09:40:22.625Z,4.22
2022-10-26T10:45:27.677Z,3.13
2022-10-26T10:54:57.984Z,5.77
2022-10-26T11:13:13.375Z,4.18
2022-10-26T11:46:12.818Z,4.03
2022-10-26T12:21:05.362Z,5.57
2022-10-26T12:26:26.640Z,6.10
2022-10-26T12:29:03.944Z,2.55
2022-10-26T12:31:49.287Z,2.70
2022-10-26T12:34:58.296Z,2.30
2022-10-26T12:37:42.004Z,4.30
2022-10-26T12:40:32.494Z,2.22
2022-10-26T13:07:57.523Z,4.38
2022-10-26T13:16:14.163Z,4.65
2022-10-26T13:31:05.920Z,5.03
2022-10-26T13:33:52.791Z,3.83
2022-10-26T13:36:59.190Z,2.78
2022-10-26T13:40:22.933Z,1.75
2022-10-26T13:43:04.601Z,2.45
2022-10-26T13:45:55.116Z,3.58
2022-10-26T13:48:58.688Z,2.60
2022-10-26T13:52:20.853Z,1.80
2022-10-26T13:55:01.337Z,2.42
2022-10-26T13:58:02.964Z,3.78
2022-10-26T14:01:21.877Z,2.45
2022-10-26T14:03:56.352Z,4.13
2022-10-26T14:09:45.298Z,3.30
2022-10-26T14:12:24.738Z,2.38
2022-10-26T14:17:52.173Z,23.20
2022-10-26T14:20:32.659Z,12.88
2022-10-26T14:23:02.860Z,8.60
2022-10-26T14:25:47.880Z,5.95
2022-10-26T14:28:54.674Z,5.55
2022-10-26T14:31:37.006Z,7.60
2022-10-26T14:34:20.314Z,16.25
2022-10-26T14:42:36.475Z,4.88
2022-10-26T14:45:04.181Z,5.30
2022-10-26T14:47:46.375Z,5.18
2022-10-26T14:50:36.315Z,4.97
2022-10-26T15:00:38.785Z,7.90
2022-10-26T15:02:54.621Z,24.52
2022-10-26T15:12:35.489Z,10.63
2022-10-26T15:15:30.152Z,7.07
2022-10-26T15:18:42.749Z,3.88
2022-10-26T15:21:27.958Z,8.52
2022-10-26T15:24:25.791Z,8.23
2022-10-26T15:27:00.152Z,4.63
2022-10-26T15:29:45.583Z,4.73
2022-10-26T15:32:33.724Z,5.10
2022-10-26T15:35:32.716Z,6.78
2022-10-26T15:38:19.951Z,7.82
2022-10-26T15:40:47.337Z,6.38
2022-10-26T15:46:14.713Z,7.78
2022-10-26T15:49:03.355Z,7.93
2022-10-26T15:51:40.698Z,5.00
2022-10-26T15:54:10.713Z,4.32
2022-10-26T15:57:01.661Z,5.43
2022-10-26T15:59:53.858Z,6.18
2022-10-26T16:05:08.878Z,8.68
2022-10-26T16:07:35.915Z,6.03
2022-10-26T16:10:03.055Z,7.23
2022-10-26T16:12:30.041Z,9.32
2022-10-26T16:15:05.641Z,9.73
2022-10-26T16:17:35.552Z,5.55
2022-10-26T16:20:08.002Z,8.65
2022-10-26T16:22:45.434Z,5.33
2022-10-26T16:25:12.735Z,6.68
2022-10-26T16:27:39.974Z,5.78
2022-10-26T16:30:12.479Z,5.93
2022-10-26T16:35:22.681Z,4.37
2022-10-26T16:37:54.151Z,5.35
2022-10-26T16:40:23.689Z,26.50
2022-10-26T16:43:01.535Z,31.77
2022-10-26T16:45:41.511Z,41.30
2022-10-26T16:51:23.490Z,15.50
2022-10-26T16:54:13.510Z,21.20
2022-10-26T16:56:46.082Z,27.13
2022-10-26T16:59:29.520Z,28.08
2022-10-26T17:04:54.271Z,22.00
2022-10-26T17:07:26.456Z,18.67
2022-10-26T17:09:57.854Z,22.27
2022-10-26T17:12:35.156Z,31.40
2022-10-26T17:15:26.472Z,16.27
2022-10-26T17:18:12.912Z,22.42
2022-10-26T17:21:07.713Z,20.88
2022-10-26T18:24:16.419Z,21.92
2022-10-26T18:27:02.920Z,12.13
2022-10-26T18:29:56.609Z,16.13
2022-10-26T18:32:33.857Z,12.30
2022-10-26T18:38:24.875Z,29.08
2022-10-26T18:40:53.126Z,24.17
2022-10-26T18:43:22.677Z,28.60
2022-10-26T18:45:50.311Z,18.02
2022-10-26T18:48:21.839Z,20.42
2022-10-26T18:50:49.213Z,21.45
2022-10-26T18:53:16.151Z,20.20
2022-10-26T18:55:43.173Z,25.42
2022-10-26T18:58:11.457Z,25.38
2022-10-26T19:00:44.544Z,14.18
2022-10-26T19:03:25.435Z,23.08
2022-10-26T19:05:54.260Z,14.30
2022-10-26T19:08:27.829Z,17.52
2022-10-26T19:10:57.580Z,20.80
2022-10-26T19:13:26.499Z,13.45
2022-10-26T19:16:17.215Z,13.88
2022-10-26T19:18:57.699Z,12.00
2022-10-26T19:21:46.015Z,8.60
2022-10-26T19:24:41.792Z,12.25
2022-10-26T19:27:13.862Z,9.13
2022-10-26T19:29:46.127Z,10.13
2022-10-26T19:32:20.137Z,16.80
2022-10-26T19:35:06.579Z,12.82
2022-10-26T19:37:36.769Z,13.70
2022-10-26T19:40:07.161Z,14.88
2022-10-26T19:42:39.539Z,13.98
2022-10-26T19:45:39.756Z,15.60
2022-10-26T19:48:04.759Z,20.75
2022-10-26T19:50:36.247Z,25.30
2022-10-26T19:53:04.083Z,60.67
2022-10-26T19:55:33.553Z,42.30
2022-10-26T19:58:03.419Z,37.70
2022-10-26T20:00:31.231Z,25.73
2022-10-26T20:03:05.979Z,20.33
2022-10-26T20:05:50.659Z,20.92
2022-10-26T20:08:20.484Z,17.58
2022-10-26T20:10:52.175Z,22.90
2022-10-26T20:13:34.258Z,18.85
2022-10-26T20:16:09.744Z,22.83
2022-10-26T20:21:51.255Z,17.75
2022-10-26T20:27:28.936Z,11.07
2022-10-26T20:30:04.937Z,8.13
2022-10-26T20:32:57.996Z,13.07
2022-10-26T20:35:50.058Z,13.50
2022-10-26T20:44:04.534Z,11.38
2022-10-26T20:46:33.257Z,13.57
2022-10-26T20:49:25.911Z,11.95
2022-10-26T20:55:22.736Z,9.65
2022-10-26T21:04:33.160Z,76.38
2022-10-26T21:07:26.201Z,68.77
2022-10-26T21:12:55.623Z,54.63
2022-10-26T21:15:35.966Z,24.40
2022-10-26T21:18:42.739Z,36.03
2022-10-26T21:21:34.978Z,20.97
2022-10-26T21:27:11.891Z,16.73
2022-10-26T21:30:08.702Z,13.57
2022-10-26T21:32:54.742Z,14.15
2022-10-26T21:35:52.367Z,13.73
2022-10-26T21:38:47.819Z,19.73
2022-10-26T21:41:40.844Z,13.52
2022-10-26T21:44:23.498Z,16.67
2022-10-26T21:47:09.443Z,14.20
2022-10-26T21:52:47.096Z,15.68
2022-10-26T21:55:28.491Z,13.77
2022-10-26T21:58:20.803Z,22.80
2022-10-26T22:01:06.608Z,16.55
2022-10-26T22:03:49.882Z,14.07
2022-10-26T22:07:15.564Z,16.40
2022-10-26T22:10:13.552Z,11.85
2022-10-26T22:15:46.389Z,12.77
2022-10-26T22:29:59.050Z,9.95
2022-10-26T22:32:49.427Z,10.03
2022-10-26T22:35:41.295Z,10.60
2022-10-26T22:38:13.418Z,9.15
2022-10-26T22:43:43.527Z,10.00
2022-10-26T22:49:32.046Z,9.20
2022-10-26T22:52:04.126Z,8.25
2022-10-26T22:55:03.007Z,8.65
2022-10-26T22:58:00.808Z,8.65
2022-10-26T23:00:28.062Z,11.40
2022-10-26T23:03:01.249Z,11.07
2022-10-26T23:05:48.487Z,9.93
2022-10-26T23:08:51.178Z,8.40
2022-10-26T23:11:22.785Z,8.85
2022-10-26T23:13:57.703Z,9.97
2022-10-26T23:16:28.774Z,7.85
2022-10-26T23:19:40.620Z,8.90
2022-10-26T23:22:29.544Z,9.05
2022-10-26T23:28:19.940Z,10.07
2022-10-26T23:31:09.225Z,8.05
2022-10-26T23:33:36.802Z,9.15
2022-10-26T23:36:19.622Z,10.82
2022-10-26T23:38:49.428Z,9.20
2022-10-26T23:44:26.623Z,9.02
2022-10-26T23:47:05.865Z,7.90
2022-10-26T23:52:46.103Z,6.75
2022-10-26T23:55:50.861Z,9.03
2022-10-26T23:58:19.460Z,8.32
